Killona, Louisiana
Current Conditions -  °F | °C
As of 4:35 PM on Wednesday 22 Oct 2014 (Local Time) from K1L0 Reporting Station
Clear Clear  
Wind Chill: 77°   Ceiling: Unl
Heat Index: 78°   Visibility: 10mi
Dew Point: 47°   Wind: 6mph
Humidity: 35%   Direction: 30°NNE
Pressure: 30.02"   Gusts: NA
Location:  30.01°N, 90.48°W
Report Text: K1L0 222135Z AUTO 03005KT 10SM CLR 25/09 A3002 RMK AO2 T02510085
Loading
Personal Weather Stations






























Interactive Weather Map
Tropical Storm Tracking
New forecast layout! Learn more

10-Day Weather Forecast

Advertisements
Track Severe Weather on mobile